Terminal Aerodrome Forecast
Issued by NWS

Home | Current Version | Previous Version | Text Only | Print | Product List | Glossary On
Versions: 1 2 3 4 5 6 7 8 9 10 11 12 13 14 15 16 17
000
FTUS45 KABQ 291146
TAFTCC
TAF
KTCC 291146Z 2912/3012 02018G28KT 4SM -SN BR BKN015 OVC030
      TEMPO 2912/2916 1SM -SN BR OVC009
     FM291800 02018G28KT 6SM -SN BR OVC009
     FM292200 01015G25KT 2SM -SN BR OVC007
     FM300500 34011KT P6SM VCSH OVC025
     FM300900 33010KT P6SM BKN050=

USA.gov is the U.S. government's official web portal to all federal, state and local government web resources and services.